createdAt,value
2022-09-22T00:00:22.992Z,16.83
2022-09-22T00:01:33.249Z,16.78
2022-09-22T00:02:36.239Z,16.73
2022-09-22T00:03:46.206Z,16.71
2022-09-22T00:04:49.100Z,16.65
2022-09-22T00:06:09.253Z,16.65
2022-09-22T00:07:12.400Z,16.59
2022-09-22T00:08:15.224Z,16.58
2022-09-22T00:09:21.546Z,16.55
2022-09-22T00:10:24.398Z,16.48
2022-09-22T00:11:30.764Z,16.45
2022-09-22T00:12:34.158Z,16.47
2022-09-22T00:13:37.153Z,16.43
2022-09-22T00:14:40.037Z,16.41
2022-09-22T00:15:46.474Z,16.39
2022-09-22T00:16:56.076Z,16.36
2022-09-22T00:17:59.143Z,16.34
2022-09-22T00:19:02.377Z,16.33
2022-09-22T00:20:06.702Z,16.30
2022-09-22T00:21:17.157Z,16.26
2022-09-22T00:22:20.220Z,16.23
2022-09-22T00:23:27.173Z,16.20
2022-09-22T00:24:31.256Z,16.20
2022-09-22T00:25:34.880Z,16.17
2022-09-22T00:26:39.292Z,16.19
2022-09-22T00:27:42.182Z,16.14
2022-09-22T00:28:47.447Z,16.16
2022-09-22T00:29:51.644Z,16.15
2022-09-22T00:30:54.830Z,16.17
2022-09-22T00:31:59.615Z,16.19
2022-09-22T00:33:05.276Z,16.22
2022-09-22T00:34:13.839Z,16.22
2022-09-22T00:35:16.819Z,16.24
2022-09-22T00:36:22.744Z,16.10
2022-09-22T00:37:25.730Z,16.08
2022-09-22T00:38:29.403Z,16.22
2022-09-22T00:39:32.409Z,16.25
2022-09-22T00:40:37.426Z,16.07
2022-09-22T00:41:44.949Z,16.05
2022-09-22T00:42:49.658Z,16.02
2022-09-22T00:44:21.160Z,16.21
2022-09-22T00:45:24.516Z,16.24
2022-09-22T00:46:28.838Z,16.29
2022-09-22T00:47:43.404Z,16.33
2022-09-22T00:48:57.820Z,16.31
2022-09-22T00:50:22.159Z,16.35
2022-09-22T00:51:29.527Z,16.22
2022-09-22T00:52:40.756Z,16.31
2022-09-22T00:53:44.878Z,16.22
2022-09-22T00:54:52.834Z,16.22
2022-09-22T00:56:14.299Z,16.24
2022-09-22T00:57:27.111Z,16.24
2022-09-22T00:58:42.389Z,16.28
2022-09-22T00:59:50.584Z,16.25
2022-09-22T01:00:53.785Z,16.24
2022-09-22T01:01:56.758Z,16.27
2022-09-22T01:03:03.606Z,16.29
2022-09-22T01:04:07.813Z,16.27
2022-09-22T01:05:11.014Z,16.24
2022-09-22T01:06:28.108Z,16.20
2022-09-22T01:07:31.830Z,16.20
2022-09-22T01:08:37.596Z,16.14
2022-09-22T01:09:40.636Z,16.10
2022-09-22T01:10:44.688Z,16.05
2022-09-22T01:11:47.908Z,16.01
2022-09-22T01:13:39.383Z,15.93
2022-09-22T01:15:12.423Z,15.85
2022-09-22T01:17:09.503Z,15.76
2022-09-22T01:19:31.739Z,15.70
2022-09-22T01:21:33.804Z,15.62
2022-09-22T01:23:00.577Z,15.55
2022-09-22T01:24:22.658Z,15.52
2022-09-22T01:25:55.764Z,15.50
2022-09-22T01:27:28.374Z,15.48
2022-09-22T01:29:11.249Z,15.44
2022-09-22T01:30:22.989Z,15.43
2022-09-22T01:32:18.317Z,15.57
2022-09-22T01:33:45.794Z,15.70
2022-09-22T01:35:27.852Z,15.76
2022-09-22T01:36:52.656Z,15.77
2022-09-22T01:38:23.110Z,15.84
2022-09-22T01:39:45.725Z,15.88
2022-09-22T01:41:09.687Z,15.90
2022-09-22T01:42:29.620Z,15.95
2022-09-22T01:43:47.967Z,16.02
2022-09-22T01:45:08.790Z,16.11
2022-09-22T01:46:25.821Z,16.16
2022-09-22T01:47:45.061Z,16.30
2022-09-22T01:48:52.320Z,16.34
2022-09-22T01:50:03.100Z,16.37
2022-09-22T01:51:12.321Z,16.36
2022-09-22T01:52:27.062Z,16.37
2022-09-22T01:53:52.373Z,16.40
2022-09-22T01:55:06.915Z,16.44
2022-09-22T01:56:13.043Z,16.47
2022-09-22T01:57:47.238Z,16.50
2022-09-22T01:58:57.923Z,16.56
2022-09-22T02:00:05.867Z,16.64
2022-09-22T02:01:19.697Z,16.66
2022-09-22T02:02:34.151Z,16.67
2022-09-22T02:04:29.343Z,16.73
2022-09-22T02:05:50.387Z,16.73
2022-09-22T02:06:58.911Z,16.72
2022-09-22T02:08:10.080Z,16.70
2022-09-22T02:09:18.900Z,16.68
2022-09-22T02:10:32.210Z,16.67
2022-09-22T02:11:35.614Z,16.67
2022-09-22T02:12:39.538Z,16.69
2022-09-22T02:13:44.202Z,16.71
2022-09-22T02:14:47.631Z,16.72
2022-09-22T02:16:02.823Z,16.72
2022-09-22T02:17:05.751Z,16.73
2022-09-22T02:18:20.031Z,16.61
2022-09-22T02:19:50.628Z,16.61
2022-09-22T02:20:53.699Z,16.68
2022-09-22T02:21:56.978Z,16.61
2022-09-22T02:22:59.786Z,16.61
2022-09-22T02:24:02.805Z,16.60
2022-09-22T02:25:06.694Z,16.57
2022-09-22T02:26:10.876Z,16.61
2022-09-22T02:27:35.532Z,16.65
2022-09-22T02:28:41.441Z,16.66
2022-09-22T02:29:55.029Z,16.70
2022-09-22T02:31:19.041Z,16.71
2022-09-22T02:32:24.038Z,16.72
2022-09-22T02:33:28.435Z,16.73
2022-09-22T02:34:31.996Z,16.76
2022-09-22T02:35:39.301Z,16.79
2022-09-22T02:37:03.491Z,16.80
2022-09-22T02:38:23.786Z,16.74
2022-09-22T02:40:07.286Z,16.82
2022-09-22T02:41:40.733Z,16.86
2022-09-22T02:42:56.434Z,16.67
2022-09-22T02:44:05.728Z,16.69
2022-09-22T02:45:29.608Z,16.72
2022-09-22T02:46:48.892Z,16.69
2022-09-22T02:47:53.331Z,16.69
2022-09-22T02:49:05.064Z,16.69
2022-09-22T02:50:12.015Z,16.73
2022-09-22T02:51:16.395Z,16.75
2022-09-22T02:52:23.321Z,16.78
2022-09-22T02:53:26.179Z,16.79
2022-09-22T02:54:29.297Z,16.80
2022-09-22T02:55:32.348Z,16.80
2022-09-22T02:56:35.745Z,16.81
2022-09-22T02:57:39.080Z,16.80
2022-09-22T02:58:41.978Z,16.83
2022-09-22T02:59:44.836Z,16.80
2022-09-22T03:00:47.759Z,16.78
2022-09-22T03:01:50.646Z,16.77
2022-09-22T03:02:53.713Z,16.76
2022-09-22T03:03:56.585Z,16.74
2022-09-22T03:04:59.596Z,16.73
2022-09-22T03:06:02.639Z,16.74
2022-09-22T03:07:07.063Z,16.75
2022-09-22T03:08:10.021Z,16.75
2022-09-22T03:09:13.100Z,16.75
2022-09-22T03:10:16.323Z,16.75
2022-09-22T03:11:19.224Z,16.73
2022-09-22T03:12:22.149Z,16.73
2022-09-22T03:13:25.004Z,16.73
2022-09-22T03:14:27.953Z,16.77
2022-09-22T03:15:31.266Z,16.76
2022-09-22T03:16:34.867Z,16.73
2022-09-22T03:17:38.437Z,16.74
2022-09-22T03:18:41.253Z,16.72
2022-09-22T03:19:44.148Z,16.85
2022-09-22T03:20:47.184Z,16.86
2022-09-22T03:21:50.261Z,16.81
2022-09-22T03:22:53.267Z,16.88
2022-09-22T03:23:56.135Z,16.88
2022-09-22T03:24:59.465Z,16.76
2022-09-22T03:26:02.581Z,16.82
2022-09-22T03:27:05.597Z,16.83
2022-09-22T03:28:08.583Z,16.81
2022-09-22T03:29:11.549Z,16.79
2022-09-22T03:30:15.064Z,16.80
2022-09-22T03:31:17.882Z,16.79
2022-09-22T03:32:22.348Z,16.81
2022-09-22T03:33:25.588Z,16.81
2022-09-22T03:34:28.784Z,16.81
2022-09-22T03:35:31.756Z,16.83
2022-09-22T03:36:35.196Z,16.85
2022-09-22T03:37:38.109Z,16.84
2022-09-22T03:38:41.157Z,16.88
2022-09-22T03:39:44.273Z,16.88
2022-09-22T03:40:52.403Z,16.88
2022-09-22T03:41:55.477Z,16.87
2022-09-22T03:42:58.516Z,16.86
2022-09-22T03:44:01.782Z,16.83
2022-09-22T03:45:05.231Z,16.83
2022-09-22T03:46:08.174Z,16.80
2022-09-22T03:47:11.201Z,16.81
2022-09-22T03:48:14.259Z,16.81
2022-09-22T03:49:17.299Z,16.80
2022-09-22T03:50:21.130Z,16.79
2022-09-22T03:51:24.176Z,16.81
2022-09-22T03:52:27.413Z,16.76
2022-09-22T03:53:30.302Z,16.79
2022-09-22T03:54:33.512Z,16.76
2022-09-22T03:55:37.253Z,16.75
2022-09-22T03:56:40.163Z,16.72
2022-09-22T03:57:43.876Z,16.72
2022-09-22T03:58:46.699Z,16.70
2022-09-22T03:59:49.870Z,16.71
2022-09-22T04:00:52.736Z,16.73
2022-09-22T04:01:58.238Z,16.75
2022-09-22T04:03:01.422Z,16.73
2022-09-22T04:04:04.767Z,16.75
2022-09-22T04:05:08.372Z,16.76
2022-09-22T04:06:11.727Z,16.75
2022-09-22T04:07:14.627Z,16.76
2022-09-22T04:08:18.138Z,16.75
2022-09-22T04:09:21.122Z,16.76
2022-09-22T04:10:23.935Z,16.79
2022-09-22T04:11:27.457Z,16.79
2022-09-22T04:12:30.609Z,16.80
2022-09-22T04:13:34.338Z,16.79
2022-09-22T04:14:37.375Z,16.83
2022-09-22T04:15:40.675Z,16.83
2022-09-22T04:16:43.883Z,16.86
2022-09-22T04:17:47.189Z,16.87
2022-09-22T04:18:50.302Z,16.91
2022-09-22T04:19:55.295Z,16.91
2022-09-22T04:20:59.181Z,16.95
2022-09-22T04:22:04.118Z,16.95
2022-09-22T04:23:07.291Z,16.95
2022-09-22T04:24:11.440Z,16.98
2022-09-22T04:25:14.348Z,16.96
2022-09-22T04:26:17.298Z,16.98
2022-09-22T04:27:21.048Z,17.03
2022-09-22T04:28:24.275Z,17.04
2022-09-22T04:29:27.108Z,17.03
2022-09-22T04:30:30.821Z,17.03
2022-09-22T04:31:33.591Z,17.00
2022-09-22T04:32:36.484Z,17.03
2022-09-22T04:33:39.338Z,17.05
2022-09-22T04:34:43.349Z,17.07
2022-09-22T04:35:48.173Z,17.06
2022-09-22T04:36:51.372Z,17.06
2022-09-22T04:37:55.691Z,17.09
2022-09-22T04:39:03.230Z,17.13
2022-09-22T04:40:06.874Z,17.14
2022-09-22T04:41:09.925Z,17.14
2022-09-22T04:42:12.726Z,17.14
2022-09-22T04:43:16.059Z,17.16
2022-09-22T04:44:19.106Z,17.19
2022-09-22T04:45:22.413Z,17.19
2022-09-22T04:46:26.958Z,17.19
2022-09-22T04:47:30.484Z,17.22
2022-09-22T04:48:33.337Z,17.19
2022-09-22T04:49:36.235Z,17.20
2022-09-22T04:50:39.240Z,17.21
2022-09-22T04:51:42.209Z,17.22
2022-09-22T04:52:52.332Z,17.42
2022-09-22T04:53:55.192Z,17.49
2022-09-22T04:54:58.192Z,17.33
2022-09-22T04:56:01.466Z,17.31
2022-09-22T04:57:04.580Z,17.29
2022-09-22T04:58:07.855Z,17.31
2022-09-22T04:59:11.853Z,17.31
2022-09-22T05:00:15.184Z,17.51
2022-09-22T05:01:18.206Z,17.55
2022-09-22T05:02:21.213Z,17.61
2022-09-22T05:03:24.199Z,17.61
2022-09-22T05:04:27.347Z,17.60
2022-09-22T05:05:30.333Z,17.56
2022-09-22T05:06:33.315Z,17.62
2022-09-22T05:07:36.326Z,17.61
2022-09-22T05:08:39.233Z,17.66
2022-09-22T05:09:42.175Z,17.68
2022-09-22T05:10:46.129Z,17.65
2022-09-22T05:11:49.051Z,17.71
2022-09-22T05:12:53.709Z,17.72
2022-09-22T05:13:57.908Z,17.75
2022-09-22T05:15:00.886Z,17.78
2022-09-22T05:16:05.774Z,17.78
2022-09-22T05:17:08.676Z,17.75
2022-09-22T05:18:11.783Z,17.84
2022-09-22T05:19:14.679Z,17.86
2022-09-22T05:20:19.597Z,17.85
2022-09-22T05:21:22.617Z,17.76
2022-09-22T05:22:25.423Z,17.71
2022-09-22T05:23:28.748Z,17.66
2022-09-22T05:24:32.448Z,17.68
2022-09-22T05:25:35.487Z,17.65
2022-09-22T05:26:38.682Z,17.66
2022-09-22T05:27:54.996Z,17.71
2022-09-22T05:28:58.200Z,17.71
2022-09-22T05:30:01.075Z,17.75
2022-09-22T05:31:04.837Z,17.79
2022-09-22T05:32:07.748Z,17.78
2022-09-22T05:33:10.722Z,17.83
2022-09-22T05:34:13.820Z,17.88
2022-09-22T05:35:23.537Z,17.90
2022-09-22T05:36:26.502Z,18.13
2022-09-22T05:37:29.734Z,18.26
2022-09-22T05:38:32.577Z,18.27
2022-09-22T05:39:35.394Z,18.34
2022-09-22T05:40:38.633Z,18.36
2022-09-22T05:41:41.831Z,18.44
2022-09-22T05:42:46.945Z,18.43
2022-09-22T05:43:49.827Z,18.39
2022-09-22T05:44:52.862Z,18.47
2022-09-22T05:45:56.042Z,18.52
2022-09-22T05:46:59.095Z,18.57
2022-09-22T05:48:02.197Z,18.64
2022-09-22T05:49:04.976Z,18.74
2022-09-22T05:50:10.143Z,18.85
2022-09-22T05:51:12.937Z,18.92
2022-09-22T05:52:15.986Z,18.89
2022-09-22T05:53:19.026Z,19.16
2022-09-22T05:54:23.490Z,19.20
2022-09-22T05:55:26.783Z,19.26
2022-09-22T05:56:32.264Z,19.32
2022-09-22T05:57:35.462Z,19.43
2022-09-22T05:58:38.582Z,19.44
2022-09-22T05:59:41.447Z,19.36
2022-09-22T06:00:44.368Z,19.42
2022-09-22T06:01:47.729Z,19.41
2022-09-22T06:02:50.666Z,19.49
2022-09-22T06:03:54.070Z,19.59
2022-09-22T06:04:57.418Z,19.59
2022-09-22T06:06:00.344Z,19.74
2022-09-22T06:07:03.275Z,19.85
2022-09-22T06:08:07.000Z,19.63
2022-09-22T06:09:09.938Z,19.64
2022-09-22T06:10:12.910Z,19.65
2022-09-22T06:11:15.728Z,19.67
2022-09-22T06:12:19.196Z,19.75
2022-09-22T06:13:22.087Z,19.78
2022-09-22T06:14:25.032Z,19.89
2022-09-22T06:15:28.742Z,19.86
2022-09-22T06:16:31.990Z,20.21
2022-09-22T06:17:34.866Z,20.06
2022-09-22T06:18:37.786Z,20.13
2022-09-22T06:19:41.745Z,20.14
2022-09-22T06:20:45.232Z,20.19
2022-09-22T06:21:48.245Z,20.25
2022-09-22T06:22:51.281Z,20.50
2022-09-22T06:23:54.301Z,20.62
2022-09-22T06:24:57.587Z,20.66
2022-09-22T06:26:00.893Z,20.70
2022-09-22T06:27:03.821Z,20.74
2022-09-22T06:28:09.750Z,20.78
2022-09-22T06:29:12.529Z,20.83
2022-09-22T06:30:15.347Z,20.75
2022-09-22T06:31:18.403Z,20.80
2022-09-22T06:32:21.371Z,21.04
2022-09-22T06:33:24.221Z,20.84
2022-09-22T06:34:27.354Z,20.87
2022-09-22T06:35:36.705Z,20.97
2022-09-22T06:36:45.314Z,21.06
2022-09-22T06:37:56.389Z,21.08
2022-09-22T06:39:00.491Z,21.12
2022-09-22T06:40:04.696Z,21.13
2022-09-22T06:41:08.382Z,21.26
2022-09-22T06:42:11.403Z,21.46
2022-09-22T06:43:22.613Z,21.55
2022-09-22T06:44:25.840Z,21.86
2022-09-22T06:45:30.372Z,22.08
2022-09-22T06:46:34.924Z,22.31
2022-09-22T06:47:38.161Z,22.44
2022-09-22T06:48:41.043Z,22.66
2022-09-22T06:49:44.044Z,22.77
2022-09-22T06:50:53.623Z,22.81
2022-09-22T06:51:56.666Z,22.74
2022-09-22T06:53:07.322Z,22.83
2022-09-22T06:54:10.081Z,22.83
2022-09-22T06:55:12.963Z,22.98
2022-09-22T06:56:15.873Z,23.08
2022-09-22T06:57:19.090Z,23.16
2022-09-22T06:58:22.694Z,23.13
2022-09-22T06:59:25.898Z,23.11
2022-09-22T07:00:33.934Z,23.26
2022-09-22T07:01:37.670Z,23.38
2022-09-22T07:02:40.683Z,23.22
2022-09-22T07:03:44.560Z,23.24
2022-09-22T07:04:48.353Z,23.21
2022-09-22T07:05:58.406Z,22.98
2022-09-22T07:07:04.033Z,23.05
2022-09-22T07:08:07.090Z,23.01
2022-09-22T07:09:10.295Z,22.98
2022-09-22T07:10:13.164Z,23.04
2022-09-22T07:11:23.709Z,23.19
2022-09-22T07:12:26.841Z,23.26
2022-09-22T07:13:32.241Z,23.34
2022-09-22T07:14:35.296Z,23.11
2022-09-22T07:15:38.202Z,23.21
2022-09-22T07:16:41.734Z,23.27
2022-09-22T07:17:44.671Z,23.31
2022-09-22T07:18:51.261Z,23.34
2022-09-22T07:19:56.366Z,23.21
2022-09-22T07:21:22.769Z,23.23
2022-09-22T07:22:26.909Z,23.28
2022-09-22T07:23:29.832Z,23.30
2022-09-22T07:24:32.799Z,23.57
2022-09-22T07:25:35.986Z,23.82
2022-09-22T07:26:40.085Z,24.11
2022-09-22T07:27:43.354Z,24.42
2022-09-22T07:28:50.370Z,24.52
2022-09-22T07:29:54.381Z,24.69
2022-09-22T07:31:08.249Z,25.10
2022-09-22T07:32:11.187Z,25.38
2022-09-22T07:33:14.581Z,25.51
2022-09-22T07:34:18.235Z,25.46
2022-09-22T07:35:21.449Z,25.80
2022-09-22T07:36:26.338Z,25.75
2022-09-22T07:37:33.212Z,25.96
2022-09-22T07:38:40.709Z,26.18
2022-09-22T07:39:45.700Z,26.36
2022-09-22T07:40:53.678Z,26.65
2022-09-22T07:41:56.655Z,26.75
2022-09-22T07:42:59.866Z,26.75
2022-09-22T07:44:23.205Z,26.80
2022-09-22T07:45:26.086Z,27.00
2022-09-22T07:46:29.135Z,27.03
2022-09-22T07:47:50.706Z,26.96
2022-09-22T07:48:53.511Z,27.12
2022-09-22T07:49:56.408Z,27.33
2022-09-22T07:51:00.254Z,27.55
2022-09-22T07:52:03.514Z,27.85
2022-09-22T07:53:06.332Z,28.98
2022-09-22T07:54:09.675Z,30.43
2022-09-22T07:55:12.535Z,31.48
2022-09-22T07:56:18.862Z,32.42
2022-09-22T07:57:21.856Z,33.03
2022-09-22T07:58:25.914Z,33.28
2022-09-22T07:59:28.876Z,34.38
2022-09-22T08:00:33.011Z,35.48
2022-09-22T08:01:39.795Z,36.39
2022-09-22T08:02:44.554Z,36.55
2022-09-22T08:03:48.119Z,37.74
2022-09-22T08:04:51.004Z,39.08
2022-09-22T08:06:10.418Z,39.56
2022-09-22T08:07:15.369Z,39.31
2022-09-22T08:08:18.376Z,39.74
2022-09-22T08:09:21.997Z,40.57
2022-09-22T08:10:26.235Z,41.42
2022-09-22T08:11:29.495Z,42.64
2022-09-22T08:12:32.656Z,43.69
2022-09-22T08:13:36.975Z,43.90
2022-09-22T08:14:39.906Z,44.33
2022-09-22T08:15:42.857Z,44.46
2022-09-22T08:16:46.109Z,44.17
2022-09-22T08:17:50.998Z,43.65
2022-09-22T08:18:58.871Z,42.76
2022-09-22T08:20:03.861Z,41.90
2022-09-22T08:21:07.977Z,41.06
2022-09-22T08:22:11.702Z,41.84
2022-09-22T08:23:14.751Z,42.69
2022-09-22T08:24:23.637Z,43.29
2022-09-22T08:25:26.804Z,45.30
2022-09-22T08:26:29.707Z,46.20
2022-09-22T08:27:34.583Z,46.36
2022-09-22T08:28:37.629Z,46.59
2022-09-22T08:29:40.551Z,46.53
2022-09-22T08:30:49.661Z,46.76
2022-09-22T08:31:54.245Z,46.76
2022-09-22T08:33:00.719Z,45.82
2022-09-22T08:34:06.057Z,45.00
2022-09-22T08:35:09.079Z,44.64
2022-09-22T08:36:12.987Z,43.03
2022-09-22T08:37:15.910Z,41.62
2022-09-22T08:38:18.845Z,40.81
2022-09-22T08:39:22.375Z,40.30
2022-09-22T08:40:25.258Z,39.64
2022-09-22T08:41:38.298Z,39.47
2022-09-22T08:42:43.298Z,38.97
2022-09-22T08:43:54.426Z,38.29
2022-09-22T08:45:26.168Z,37.52
2022-09-22T08:46:44.105Z,37.20
2022-09-22T08:48:14.429Z,36.77
2022-09-22T08:50:06.393Z,35.52
2022-09-22T08:51:39.467Z,34.59
2022-09-22T08:52:55.465Z,33.99
2022-09-22T08:54:03.103Z,33.73
2022-09-22T08:55:19.428Z,33.49
2022-09-22T08:56:33.538Z,33.33
2022-09-22T08:58:27.400Z,33.27
2022-09-22T08:59:55.311Z,35.12
2022-09-22T09:01:25.380Z,35.12
2022-09-22T09:03:14.247Z,36.48
2022-09-22T09:04:42.087Z,36.89
2022-09-22T09:06:09.267Z,36.62
2022-09-22T09:07:41.757Z,35.69
2022-09-22T09:09:14.085Z,35.19
2022-09-22T09:11:07.331Z,34.84
2022-09-22T09:12:36.251Z,36.14
2022-09-22T09:14:04.389Z,37.68
2022-09-22T09:15:13.918Z,37.78
2022-09-22T09:16:38.131Z,37.82
2022-09-22T09:17:46.544Z,37.74
2022-09-22T09:19:06.701Z,37.52
2022-09-22T09:20:45.875Z,36.47
2022-09-22T09:21:55.230Z,35.23
2022-09-22T09:22:59.772Z,34.35
2022-09-22T09:25:43.265Z,34.02
2022-09-22T09:26:49.686Z,33.23
2022-09-22T09:28:07.827Z,33.48
2022-09-22T09:29:22.073Z,33.71
2022-09-22T09:30:25.099Z,33.83
2022-09-22T09:31:53.300Z,33.84
2022-09-22T09:33:01.182Z,33.78
2022-09-22T09:34:14.443Z,33.85
2022-09-22T09:35:26.709Z,33.78
2022-09-22T09:37:27.463Z,34.08
2022-09-22T09:38:40.010Z,36.42
2022-09-22T09:39:44.725Z,37.25
2022-09-22T09:41:21.798Z,37.35
2022-09-22T09:42:33.308Z,41.37
2022-09-22T09:43:37.382Z,41.40
2022-09-22T09:44:40.400Z,42.19
2022-09-22T09:46:09.952Z,42.83
2022-09-22T09:47:32.683Z,43.41
2022-09-22T09:49:11.829Z,47.30
2022-09-22T09:50:16.106Z,47.96
2022-09-22T09:51:20.075Z,49.78
2022-09-22T09:52:27.041Z,48.93
2022-09-22T09:53:42.225Z,48.15
2022-09-22T09:54:48.072Z,47.65
2022-09-22T09:55:51.269Z,46.02
2022-09-22T09:57:16.064Z,44.29
2022-09-22T09:58:37.447Z,43.05
2022-09-22T10:00:32.065Z,42.09
2022-09-22T10:01:35.334Z,40.97
2022-09-22T10:03:02.960Z,40.27
2022-09-22T10:04:05.996Z,39.26
2022-09-22T10:05:37.584Z,38.89
2022-09-22T10:06:41.834Z,37.59
2022-09-22T10:07:48.843Z,36.97
2022-09-22T10:08:53.155Z,36.22
2022-09-22T10:10:16.507Z,35.55
2022-09-22T10:11:32.820Z,34.69
2022-09-22T10:12:35.955Z,34.32
2022-09-22T10:13:41.029Z,33.71
2022-09-22T10:14:54.319Z,33.13
2022-09-22T10:16:22.736Z,32.81
2022-09-22T10:17:31.149Z,32.53
2022-09-22T10:18:41.221Z,32.18
2022-09-22T10:19:44.337Z,32.29
2022-09-22T10:21:01.224Z,35.17
2022-09-22T10:22:28.112Z,38.72
2022-09-22T10:23:34.376Z,37.17
2022-09-22T10:24:37.700Z,37.14
2022-09-22T10:25:40.619Z,36.77
2022-09-22T10:26:57.499Z,36.36
2022-09-22T10:28:01.659Z,35.75
2022-09-22T10:29:12.298Z,36.97
2022-09-22T10:30:22.641Z,35.63
2022-09-22T10:31:25.453Z,34.75
2022-09-22T10:32:28.822Z,33.98
2022-09-22T10:33:33.487Z,33.14
2022-09-22T10:36:12.062Z,30.99
2022-09-22T10:37:25.533Z,30.16
2022-09-22T10:38:29.397Z,29.56
2022-09-22T10:39:38.577Z,28.93
2022-09-22T10:40:46.773Z,28.40
2022-09-22T10:41:50.029Z,27.94
2022-09-22T10:42:57.744Z,27.64
2022-09-22T10:46:23.114Z,26.52
2022-09-22T10:47:36.000Z,26.07
2022-09-22T10:48:54.018Z,25.76
2022-09-22T10:50:24.303Z,25.54
2022-09-22T10:51:55.533Z,25.43
2022-09-22T10:53:32.587Z,25.36
2022-09-22T10:54:58.129Z,25.35
2022-09-22T10:56:37.603Z,25.43
2022-09-22T10:58:15.236Z,25.44
2022-09-22T11:00:18.428Z,25.48
2022-09-22T11:01:36.767Z,25.33
2022-09-22T11:03:16.982Z,25.48
2022-09-22T11:04:34.759Z,25.60
2022-09-22T11:06:51.242Z,25.53
2022-09-22T11:08:29.056Z,25.87
2022-09-22T11:10:45.725Z,26.14
2022-09-22T11:12:19.050Z,26.44
2022-09-22T11:13:54.150Z,26.57
2022-09-22T11:15:20.599Z,26.86
2022-09-22T11:16:35.587Z,29.78
2022-09-22T11:18:05.223Z,30.93
2022-09-22T11:19:33.977Z,30.19
2022-09-22T11:20:45.171Z,29.83
2022-09-22T11:22:27.503Z,29.07
2022-09-22T11:24:31.072Z,28.39
2022-09-22T11:26:04.924Z,27.64
2022-09-22T11:27:25.056Z,27.21
2022-09-22T11:28:58.591Z,26.68
2022-09-22T11:30:20.469Z,26.14
2022-09-22T11:31:47.197Z,25.75
2022-09-22T11:33:39.858Z,25.19
2022-09-22T11:35:09.953Z,24.86
2022-09-22T11:36:48.073Z,24.62
2022-09-22T11:38:13.171Z,24.40
2022-09-22T11:39:25.537Z,24.19
2022-09-22T11:40:53.783Z,24.01
2022-09-22T11:42:21.372Z,23.85
2022-09-22T11:43:59.363Z,23.69
2022-09-22T11:45:19.471Z,23.70
2022-09-22T11:46:44.065Z,23.78
2022-09-22T11:48:07.377Z,23.89
2022-09-22T11:49:42.694Z,23.95
2022-09-22T11:51:09.534Z,24.19
2022-09-22T11:52:43.287Z,24.28
2022-09-22T11:54:08.934Z,24.43
2022-09-22T11:55:51.517Z,24.54
2022-09-22T11:57:01.607Z,24.59
2022-09-22T11:58:20.627Z,24.77
2022-09-22T11:59:49.431Z,24.88
2022-09-22T12:01:13.082Z,24.99
2022-09-22T12:02:49.032Z,25.02
2022-09-22T12:04:27.878Z,25.07
2022-09-22T12:06:03.941Z,25.15
2022-09-22T12:07:28.701Z,25.17
2022-09-22T12:09:04.475Z,25.12
2022-09-22T12:10:26.021Z,25.18
2022-09-22T12:11:31.484Z,25.20
2022-09-22T12:12:35.193Z,25.14
2022-09-22T12:13:46.044Z,25.17
2022-09-22T12:14:56.684Z,25.26
2022-09-22T12:16:21.350Z,25.30
2022-09-22T12:18:10.919Z,25.36
2022-09-22T12:19:40.444Z,25.41
2022-09-22T12:21:03.023Z,25.66
2022-09-22T12:22:44.806Z,25.81
2022-09-22T12:23:52.191Z,25.97
2022-09-22T12:24:55.205Z,26.07
2022-09-22T12:26:08.166Z,26.08
2022-09-22T12:27:21.125Z,26.22
2022-09-22T12:28:30.468Z,26.20
2022-09-22T12:29:33.789Z,26.11
2022-09-22T12:30:36.615Z,26.15
2022-09-22T12:31:41.814Z,26.16
2022-09-22T12:32:45.882Z,26.30
2022-09-22T12:33:53.804Z,26.28
2022-09-22T12:34:59.171Z,26.39
2022-09-22T12:36:03.908Z,26.38
2022-09-22T12:37:11.380Z,26.45
2022-09-22T12:38:14.230Z,26.01
2022-09-22T12:39:32.101Z,26.07
2022-09-22T12:40:38.123Z,26.12
2022-09-22T12:42:02.733Z,25.83
2022-09-22T12:43:06.508Z,25.99
2022-09-22T12:44:26.763Z,26.07
2022-09-22T12:45:38.167Z,26.18
2022-09-22T12:46:43.541Z,26.26
2022-09-22T12:47:53.320Z,26.20
2022-09-22T12:48:56.434Z,26.37
2022-09-22T12:50:06.996Z,26.44
2022-09-22T12:51:24.765Z,26.50
2022-09-22T12:52:54.413Z,26.58
2022-09-22T12:54:22.040Z,26.45
2022-09-22T12:55:30.512Z,26.53
2022-09-22T12:56:53.360Z,26.57
2022-09-22T12:58:02.552Z,26.53
2022-09-22T12:59:40.134Z,26.45
2022-09-22T13:00:43.370Z,26.55
2022-09-22T13:01:46.729Z,26.63
2022-09-22T13:02:50.420Z,26.61
2022-09-22T13:04:04.301Z,26.59
2022-09-22T13:05:27.157Z,26.51
2022-09-22T13:06:30.061Z,26.42
2022-09-22T13:07:36.424Z,26.42
2022-09-22T13:08:39.224Z,26.41
2022-09-22T13:09:42.149Z,26.37
2022-09-22T13:11:08.650Z,26.33
2022-09-22T13:12:12.073Z,26.36
2022-09-22T13:13:43.776Z,26.28
2022-09-22T13:15:07.668Z,26.09
2022-09-22T13:16:16.817Z,26.12
2022-09-22T13:17:50.406Z,26.14
2022-09-22T13:18:54.109Z,26.17
2022-09-22T13:19:57.047Z,26.03
2022-09-22T13:21:03.468Z,25.94
2022-09-22T13:22:17.981Z,25.73
2022-09-22T13:23:21.082Z,25.65
2022-09-22T13:24:27.510Z,25.43
2022-09-22T13:25:31.397Z,25.16
2022-09-22T13:26:41.923Z,24.91
2022-09-22T13:27:45.584Z,25.06
2022-09-22T13:29:21.676Z,24.99
2022-09-22T13:30:24.649Z,25.08
2022-09-22T13:31:27.723Z,25.12
2022-09-22T13:32:30.617Z,25.11
2022-09-22T13:33:35.924Z,25.17
2022-09-22T13:34:39.126Z,25.11
2022-09-22T13:35:44.255Z,25.10
2022-09-22T13:36:48.704Z,24.89
2022-09-22T13:37:54.910Z,24.89
2022-09-22T13:38:59.135Z,24.87
2022-09-22T13:40:03.250Z,24.79
2022-09-22T13:41:29.687Z,24.78
2022-09-22T13:42:33.601Z,24.68
2022-09-22T13:43:40.327Z,24.73
2022-09-22T13:44:48.348Z,24.56
2022-09-22T13:45:52.336Z,24.66
2022-09-22T13:46:57.440Z,24.66
2022-09-22T13:48:10.318Z,24.70
2022-09-22T13:49:27.204Z,24.69
2022-09-22T13:50:30.241Z,24.80
2022-09-22T13:51:33.111Z,24.85
2022-09-22T13:52:38.650Z,24.98
2022-09-22T13:53:51.484Z,25.12
2022-09-22T13:55:14.933Z,25.16
2022-09-22T13:56:22.016Z,25.30
2022-09-22T13:57:31.622Z,25.48
2022-09-22T13:58:41.473Z,25.57
2022-09-22T13:59:44.581Z,25.50
2022-09-22T14:01:12.607Z,25.53
2022-09-22T14:02:28.206Z,25.47
2022-09-22T14:03:38.413Z,25.35
2022-09-22T14:04:53.481Z,25.25
2022-09-22T14:05:57.596Z,25.24
2022-09-22T14:07:08.542Z,25.25
2022-09-22T14:08:20.121Z,25.17
2022-09-22T14:09:25.924Z,25.11
2022-09-22T14:10:28.991Z,25.01
2022-09-22T14:11:33.232Z,24.92
2022-09-22T14:12:36.513Z,24.76
2022-09-22T14:13:52.753Z,24.74
2022-09-22T14:14:56.433Z,24.68
2022-09-22T14:16:25.593Z,24.63
2022-09-22T14:17:30.540Z,24.54
2022-09-22T14:18:46.092Z,24.49
2022-09-22T14:20:08.828Z,24.29
2022-09-22T14:21:12.375Z,24.19
2022-09-22T14:22:27.125Z,24.15
2022-09-22T14:23:32.592Z,24.14
2022-09-22T14:24:37.807Z,24.12
2022-09-22T14:25:41.216Z,24.06
2022-09-22T14:27:03.036Z,23.99
2022-09-22T14:28:16.670Z,23.84
2022-09-22T14:29:31.915Z,23.87
2022-09-22T14:30:35.199Z,23.83
2022-09-22T14:31:46.014Z,23.85
2022-09-22T14:32:57.534Z,23.89
2022-09-22T14:34:03.168Z,23.86
2022-09-22T14:35:16.706Z,23.81
2022-09-22T14:36:24.705Z,23.81
2022-09-22T14:37:32.355Z,23.81
2022-09-22T14:38:43.113Z,23.82
2022-09-22T14:39:50.839Z,23.81
2022-09-22T14:40:58.829Z,23.83
2022-09-22T14:42:21.328Z,23.90
2022-09-22T14:43:33.369Z,23.92
2022-09-22T14:44:43.257Z,23.93
2022-09-22T14:46:07.393Z,23.90
2022-09-22T14:47:19.532Z,23.88
2022-09-22T14:48:33.947Z,23.89
2022-09-22T14:49:44.574Z,23.90
2022-09-22T14:51:08.324Z,23.89
2022-09-22T14:52:30.472Z,23.91
2022-09-22T14:53:56.939Z,23.98
2022-09-22T14:55:35.969Z,23.99
2022-09-22T14:56:43.980Z,24.05
2022-09-22T14:57:49.774Z,24.11
2022-09-22T14:58:59.115Z,24.15
2022-09-22T15:00:21.483Z,24.17
2022-09-22T15:01:51.063Z,24.22
2022-09-22T15:02:55.688Z,24.27
2022-09-22T15:04:10.966Z,24.26
2022-09-22T15:05:34.305Z,24.24
2022-09-22T15:06:39.868Z,24.26
2022-09-22T15:07:48.575Z,24.22
2022-09-22T15:08:52.885Z,24.10
2022-09-22T15:10:05.170Z,24.13
2022-09-22T15:11:08.088Z,24.06
2022-09-22T15:12:40.893Z,23.91
2022-09-22T15:13:47.005Z,23.81
2022-09-22T15:14:58.472Z,23.70
2022-09-22T15:16:01.777Z,23.53
2022-09-22T15:17:51.871Z,23.39
2022-09-22T15:18:55.393Z,23.15